Time;durP1;ratioP1;P1;durP2;ratioP2;P2;SDS_P1;SDS_P2;PMS_P1;PMS_P2;Temp;Humidity;BMP_temperature;BMP_pressure;BME280_temperature;BME280_humidity;BME280_pressure;Samples;Min_cycle;Max_cycle;Signal;HPM_P1;HPM_P2
2023/10/03 00:01:35;;;;;;;1999.90;999.90;;;;;;;13.75;100.00;95245.00;5065458;28;20211;-55
2023/10/03 00:04:02;;;;;;;1999.90;999.90;;;;;;;13.72;100.00;95237.63;5065546;28;20474;-54
2023/10/03 00:06:28;;;;;;;1999.90;999.90;;;;;;;13.71;100.00;95233.34;5066064;28;20263;-55
2023/10/03 00:08:54;;;;;;;1999.90;999.90;;;;;;;13.67;100.00;95221.69;5065133;28;20178;-55
2023/10/03 00:11:22;;;;;;;1999.90;999.90;;;;;;;13.64;100.00;95217.03;5065472;28;20181;-54
2023/10/03 00:13:50;;;;;;;1999.90;999.90;;;;;;;13.62;100.00;95216.69;5065886;28;20182;-55
2023/10/03 00:16:16;;;;;;;1999.90;999.90;;;;;;;13.60;100.00;95205.38;5066038;28;20178;-54
2023/10/03 00:18:42;;;;;;;1999.90;999.90;;;;;;;13.58;100.00;95210.50;5065229;28;20173;-54
2023/10/03 00:21:07;;;;;;;1999.90;999.90;;;;;;;13.58;100.00;95201.53;5065713;28;20197;-54
2023/10/03 00:23:32;;;;;;;1999.90;999.90;;;;;;;13.58;100.00;95191.31;5065660;28;20177;-53
2023/10/03 00:25:59;;;;;;;1999.90;999.90;;;;;;;13.57;100.00;95184.28;5065411;28;20228;-53
2023/10/03 00:28:30;;;;;;;1999.90;999.90;;;;;;;13.57;100.00;95189.75;5065667;28;20189;-54
2023/10/03 00:30:56;;;;;;;1999.90;999.90;;;;;;;13.56;100.00;95185.47;5064927;28;20333;-54
2023/10/03 00:33:25;;;;;;;1999.90;999.90;;;;;;;13.56;100.00;95188.22;5065528;28;20178;-52
2023/10/03 00:35:51;;;;;;;1999.90;999.90;;;;;;;13.55;100.00;95189.41;5065646;28;20182;-51
2023/10/03 00:38:17;;;;;;;1999.90;999.90;;;;;;;13.56;100.00;95192.94;5064944;28;20174;-54
2023/10/03 00:40:52;;;;;;;1999.90;999.90;;;;;;;13.54;100.00;95190.63;5065328;28;20170;-53
2023/10/03 00:43:18;;;;;;;1999.90;999.90;;;;;;;13.50;100.00;95195.41;5065540;28;20386;-54
2023/10/03 00:45:45;;;;;;;1999.90;999.90;;;;;;;13.49;100.00;95198.56;5064790;28;20174;-55
2023/10/03 00:48:11;;;;;;;1999.90;999.90;;;;;;;13.46;100.00;95191.97;5065195;28;20174;-55
2023/10/03 00:50:38;;;;;;;1999.90;999.90;;;;;;;13.44;100.00;95202.59;5064572;28;20174;-55
2023/10/03 00:53:08;;;;;;;1999.90;999.90;;;;;;;13.44;100.00;95202.59;5065164;28;20178;-52
2023/10/03 00:55:35;;;;;;;1999.90;999.90;;;;;;;13.40;100.00;95196.41;5065010;28;20432;-54
2023/10/03 01:00:41;;;;;;;1999.90;999.90;;;;;;;13.36;100.00;95195.72;5065480;28;20169;-54
2023/10/03 01:03:24;;;;;;;1999.90;999.90;;;;;;;13.32;100.00;95195.03;5064427;28;20178;-55
2023/10/03 01:05:52;;;;;;;1999.90;999.90;;;;;;;13.29;100.00;95206.84;5064306;28;20248;-53
2023/10/03 01:08:17;;;;;;;1999.90;999.90;;;;;;;13.29;100.00;95195.88;5064820;28;20352;-51
2023/10/03 01:10:43;;;;;;;1999.90;999.90;;;;;;;13.26;100.00;95196.75;5064229;28;20180;-54
2023/10/03 01:13:11;;;;;;;1999.90;999.90;;;;;;;13.22;100.00;95201.50;5064899;28;20184;-54
2023/10/03 01:15:36;;;;;;;1999.90;999.90;;;;;;;13.17;100.00;95194.56;5064640;28;20174;-53
2023/10/03 01:18:03;;;;;;;1999.90;999.90;;;;;;;13.14;100.00;95200.13;5064927;28;20221;-53
2023/10/03 01:20:29;;;;;;;1999.90;999.90;;;;;;;13.11;100.00;95200.97;5064600;28;20356;-54
2023/10/03 01:22:56;;;;;;;1999.90;999.90;;;;;;;13.10;100.00;95196.69;5064185;28;20205;-55
2023/10/03 01:25:22;;;;;;;1999.90;999.90;;;;;;;13.10;100.00;95199.44;5064278;28;20178;-55
2023/10/03 01:27:48;;;;;;;1999.90;999.90;;;;;;;13.09;100.00;95193.19;5064184;28;20202;-53
2023/10/03 01:30:13;;;;;;;1999.90;999.90;;;;;;;13.09;100.00;95187.69;5064525;28;20181;-52
2023/10/03 01:32:48;;;;;;;1999.90;999.90;;;;;;;13.09;100.00;95186.91;5064036;28;20177;-53
2023/10/03 01:35:14;;;;;;;1999.90;999.90;;;;;;;13.06;100.00;95180.31;5064457;28;20352;-55
2023/10/03 01:37:39;;;;;;;1999.90;999.90;;;;;;;13.06;100.00;95187.75;5063809;28;20181;-54
2023/10/03 01:40:13;;;;;;;1999.90;999.90;;;;;;;13.03;100.00;95183.13;5063798;28;20170;-54
2023/10/03 01:42:45;;;;;;;1999.90;999.90;;;;;;;13.00;100.00;95167.53;5064413;28;20169;-52
2023/10/03 01:45:22;;;;;;;1999.90;999.90;;;;;;;12.98;100.00;95164.44;5064317;28;20166;-52
2023/10/03 01:47:50;;;;;;;1999.90;999.90;;;;;;;12.94;100.00;95161.72;5064149;28;20204;-55
2023/10/03 01:50:17;;;;;;;1999.90;999.90;;;;;;;12.92;100.00;95155.13;5064281;28;20209;-55
2023/10/03 01:52:43;;;;;;;1999.90;999.90;;;;;;;12.91;100.00;95150.84;5064130;28;20174;-49
2023/10/03 01:55:12;;;;;;;1999.90;999.90;;;;;;;12.88;100.00;95154.44;5064196;28;20477;-51
2023/10/03 01:57:41;;;;;;;1999.90;999.90;;;;;;;12.86;100.00;95151.38;5063606;28;20232;-52
2023/10/03 02:00:25;;;;;;;1999.90;999.90;;;;;;;12.85;100.00;95144.31;5063677;28;20170;-54
2023/10/03 02:02:53;;;;;;;1999.90;999.90;;;;;;;12.84;100.00;95142.78;5064170;28;20166;-53
2023/10/03 02:05:27;;;;;;;1999.90;999.90;;;;;;;12.82;100.00;95145.19;5063651;28;20229;-53
2023/10/03 02:07:57;;;;;;;1999.90;999.90;;;;;;;12.80;100.00;95145.59;5064114;28;20264;-53
2023/10/03 02:10:23;;;;;;;1999.90;999.90;;;;;;;12.79;100.00;95140.53;5064200;28;20237;-53
2023/10/03 02:12:51;;;;;;;1999.90;999.90;;;;;;;12.77;100.00;95148.41;5064021;28;20463;-54
2023/10/03 02:15:21;;;;;;;1999.90;999.90;;;;;;;12.79;100.00;95152.25;5063510;28;20169;-51
2023/10/03 02:17:49;;;;;;;1999.90;999.90;;;;;;;12.78;100.00;95160.91;5063966;28;20181;-54
2023/10/03 02:20:20;;;;;;;1999.90;999.90;;;;;;;12.79;100.00;95152.25;5063548;28;20171;-52
2023/10/03 02:22:53;;;;;;;1999.90;999.90;;;;;;;12.80;100.00;95155.78;5063931;28;20174;-52
2023/10/03 02:25:19;;;;;;;1999.90;999.90;;;;;;;12.79;100.00;95159.72;5064259;28;20170;-53
2023/10/03 02:27:46;;;;;;;1999.90;999.90;;;;;;;12.77;100.00;95162.09;5063601;28;20205;-54
2023/10/03 02:30:12;;;;;;;1999.90;999.90;;;;;;;12.75;100.00;95172.72;5063861;28;20185;-53
2023/10/03 02:32:39;;;;;;;1999.90;999.90;;;;;;;12.72;100.00;95173.56;5063304;28;20174;-52
2023/10/03 02:35:06;;;;;;;1999.90;999.90;;;;;;;12.71;100.00;95158.31;5063377;28;20174;-50
2023/10/03 02:37:33;;;;;;;1999.90;999.90;;;;;;;12.70;100.00;95164.97;5063819;28;20174;-49
2023/10/03 02:40:00;;;;;;;1999.90;999.90;;;;;;;12.68;100.00;95162.66;5063223;28;20173;-52
2023/10/03 02:42:26;;;;;;;1999.90;999.90;;;;;;;12.67;100.00;95155.66;5063193;28;20174;-53
2023/10/03 02:44:51;;;;;;;1999.90;999.90;;;;;;;12.66;100.00;95164.28;5063320;28;20176;-50
2023/10/03 02:47:16;;;;;;;1999.90;999.90;;;;;;;12.60;100.00;95165.97;5063701;28;20202;-52
2023/10/03 02:49:42;;;;;;;1999.90;999.90;;;;;;;12.58;100.00;95162.88;5063503;28;20173;-52
2023/10/03 02:52:08;;;;;;;1999.90;999.90;;;;;;;12.58;100.00;95157.41;5063657;28;20240;-50
2023/10/03 02:54:33;;;;;;;1999.90;999.90;;;;;;;12.57;100.00;95156.63;5065358;28;20194;-52
2023/10/03 02:56:59;;;;;;;1999.90;999.90;;;;;;;12.57;100.00;95144.91;5066705;28;20208;-50
2023/10/03 02:59:24;;;;;;;1999.90;999.90;;;;;;;12.55;100.00;95152.75;5067290;28;20186;-54
2023/10/03 03:01:52;;;;;;;1999.90;999.90;;;;;;;12.53;100.00;95149.69;5066845;28;20228;-53
2023/10/03 03:04:18;;;;;;;1999.90;999.90;;;;;;;12.51;100.00;95146.59;5067232;28;20201;-54
2023/10/03 03:06:46;;;;;;;1999.90;999.90;;;;;;;12.51;100.00;95141.91;5066793;28;20229;-50
2023/10/03 03:09:23;;;;;;;1999.90;999.90;;;;;;;12.53;100.00;95138.72;5067401;28;20178;-52
2023/10/03 03:11:49;;;;;;;1999.90;999.90;;;;;;;12.53;100.00;95144.22;5067043;28;20193;-54
2023/10/03 03:14:16;;;;;;;1999.90;999.90;;;;;;;12.51;100.00;95146.59;5066832;28;20303;-54
2023/10/03 03:16:42;;;;;;;1999.90;999.90;;;;;;;12.49;100.00;95143.47;5066418;28;20190;-53
2023/10/03 03:19:08;;;;;;;1999.90;999.90;;;;;;;12.50;100.00;95139.56;5066414;28;20178;-55
2023/10/03 03:21:34;;;;;;;1999.90;999.90;;;;;;;12.51;100.00;95135.63;5066826;28;20189;-52
2023/10/03 03:24:08;;;;;;;1999.90;999.90;;;;;;;12.51;100.00;95130.94;5066295;28;20181;-53
2023/10/03 03:26:46;;;;;;;1999.90;999.90;;;;;;;12.51;100.00;95141.09;5066938;28;20520;-54
2023/10/03 03:29:22;;;;;;;1999.90;999.90;;;;;;;12.50;100.00;95142.31;5066826;28;20459;-54
2023/10/03 03:31:50;;;;;;;1999.90;999.90;;;;;;;12.48;100.00;95153.69;5066616;28;20166;-55
2023/10/03 03:34:16;;;;;;;1999.90;999.90;;;;;;;12.47;100.00;95170.53;5066641;28;20184;-54
2023/10/03 03:36:41;;;;;;;1999.90;999.90;;;;;;;12.45;100.00;95164.69;5066795;28;20178;-53
2023/10/03 03:39:20;;;;;;;1999.90;999.90;;;;;;;12.43;100.00;95167.84;5066015;28;20177;-53
2023/10/03 03:41:46;;;;;;;1999.90;999.90;;;;;;;12.45;100.00;95167.44;5066467;28;20166;-55
2023/10/03 03:44:12;;;;;;;1999.90;999.90;;;;;;;12.43;100.00;95167.09;5066007;28;20529;-54
2023/10/03 03:46:43;;;;;;;1999.90;999.90;;;;;;;12.43;100.00;95164.34;5065809;28;20197;-53
2023/10/03 03:49:10;;;;;;;1999.90;999.90;;;;;;;12.42;100.00;95166.31;5065908;28;20201;-53
2023/10/03 03:51:36;;;;;;;1999.90;999.90;;;;;;;12.40;100.00;95178.88;5066272;28;20177;-53
2023/10/03 03:54:03;;;;;;;1999.90;999.90;;;;;;;12.42;100.00;95168.31;5066014;28;20180;-51
2023/10/03 03:56:29;;;;;;;1999.90;999.90;;;;;;;12.42;100.00;95176.50;5066233;28;20204;-56
2023/10/03 03:58:55;;;;;;;1999.90;999.90;;;;;;;12.40;100.00;95170.66;5065592;28;20194;-54
2023/10/03 04:01:21;;;;;;;1999.90;999.90;;;;;;;12.37;100.00;95168.75;5066023;28;20181;-54
2023/10/03 04:03:50;;;;;;;1999.90;999.90;;;;;;;12.37;100.00;95168.75;5065517;28;20170;-54
2023/10/03 04:06:18;;;;;;;1999.90;999.90;;;;;;;12.35;100.00;95171.16;5064775;28;20297;-55
2023/10/03 04:08:45;;;;;;;1999.90;999.90;;;;;;;12.34;100.00;95169.59;5065995;28;20178;-52
2023/10/03 04:11:11;;;;;;;1999.90;999.90;;;;;;;12.32;100.00;95174.75;5065321;28;20174;-55
2023/10/03 04:13:49;;;;;;;1999.90;999.90;;;;;;;12.32;100.00;95167.28;5065428;28;20181;-49
2023/10/03 04:16:19;;;;;;;1999.90;999.90;;;;;;;12.34;100.00;95169.59;5065832;28;20193;-53
2023/10/03 04:18:44;;;;;;;1999.90;999.90;;;;;;;12.33;100.00;95162.59;5064939;28;20174;-56
2023/10/03 04:21:10;;;;;;;1999.90;999.90;;;;;;;12.37;100.00;95152.34;5065387;28;20219;-55
2023/10/03 04:23:36;;;;;;;1999.90;999.90;;;;;;;12.35;100.00;95155.50;5066011;28;20173;-55
2023/10/03 04:26:03;;;;;;;1999.90;999.90;;;;;;;12.33;100.00;95162.59;5065797;28;20221;-53
2023/10/03 04:28:29;;;;;;;1999.90;999.90;;;;;;;12.32;100.00;95161.03;5065563;28;20174;-53
2023/10/03 04:30:54;;;;;;;1999.90;999.90;;;;;;;12.30;100.00;95163.41;5065643;28;20241;-50
2023/10/03 04:33:21;;;;;;;1999.90;999.90;;;;;;;12.26;100.00;95173.66;5065555;28;20402;-53
2023/10/03 04:35:47;;;;;;;1999.90;999.90;;;;;;;12.21;100.00;95182.38;5065121;28;20181;-54
2023/10/03 04:38:16;;;;;;;1999.90;999.90;;;;;;;12.21;100.00;95176.91;5064876;28;20245;-54
2023/10/03 04:40:42;;;;;;;1999.90;999.90;;;;;;;12.25;100.00;95164.69;5064740;28;20196;-54
2023/10/03 04:43:10;;;;;;;1999.90;999.90;;;;;;;12.24;100.00;95160.41;5064853;28;20178;-54
2023/10/03 04:45:36;;;;;;;1999.90;999.90;;;;;;;12.24;100.00;95165.13;5065491;28;20178;-52
2023/10/03 04:48:02;;;;;;;1999.90;999.90;;;;;;;12.23;100.00;95163.53;5064632;28;20232;-53
2023/10/03 04:50:28;;;;;;;1999.90;999.90;;;;;;;12.23;100.00;95158.06;5064573;28;20174;-52
2023/10/03 04:52:54;;;;;;;1999.90;999.90;;;;;;;12.22;100.00;95156.53;5064572;28;20206;-54
2023/10/03 04:55:20;;;;;;;1999.90;999.90;;;;;;;12.21;100.00;95155.75;5065243;28;20181;-51
2023/10/03 04:57:55;;;;;;;1999.90;999.90;;;;;;;12.19;100.00;95157.38;5064961;28;20205;-54
2023/10/03 05:00:22;;;;;;;1999.90;999.90;;;;;;;12.24;100.00;95156.91;5064960;28;20239;-52
2023/10/03 05:02:52;;;;;;;1999.90;999.90;;;;;;;12.30;100.00;95157.94;5064456;28;20185;-54
2023/10/03 05:05:26;;;;;;;1999.90;999.90;;;;;;;12.34;100.00;95158.66;5064294;28;20221;-53
2023/10/03 05:07:53;;;;;;;1999.90;999.90;;;;;;;12.37;100.00;95166.03;5064733;28;20209;-53
2023/10/03 05:10:30;;;;;;;1999.90;999.90;;;;;;;12.45;100.00;95172.91;5064321;28;20174;-52
2023/10/03 05:12:57;;;;;;;1999.90;999.90;;;;;;;12.55;100.00;95180.16;5064773;28;20239;-54
2023/10/03 05:15:26;;;;;;;1999.90;999.90;;;;;;;12.64;100.00;95194.09;5064201;28;20183;-52
2023/10/03 05:17:52;;;;;;;1999.90;999.90;;;;;;;12.66;100.00;95221.81;5063973;28;20166;-51
2023/10/03 05:20:17;;;;;;;1999.90;999.90;;;;;;;12.65;100.00;95244.94;5064512;28;20199;-50
2023/10/03 05:22:46;;;;;;;1999.90;999.90;;;;;;;12.63;100.00;95252.78;5064091;28;20180;-53
2023/10/03 05:25:17;;;;;;;1999.90;999.90;;;;;;;12.66;100.00;95262.91;5064078;28;20174;-53
2023/10/03 05:27:44;;;;;;;1999.90;999.90;;;;;;;12.77;100.00;95268.97;5064030;28;20247;-52
2023/10/03 05:30:10;;;;;;;1999.90;999.90;;;;;;;12.83;100.00;95278.28;5064491;28;20178;-52
2023/10/03 05:32:39;;;;;;;1999.90;999.90;;;;;;;12.99;100.00;95292.06;5063913;28;20166;-54
2023/10/03 05:35:06;;;;;;;1999.90;999.90;;;;;;;13.31;100.00;95300.47;5063833;28;20224;-50
2023/10/03 05:37:33;;;;;;;1999.90;999.90;;;;;;;13.74;100.00;95325.81;5063958;28;20173;-51
2023/10/03 05:39:59;;;;;;;1999.90;999.90;;;;;;;14.12;100.00;95340.66;5063513;28;20170;-53
2023/10/03 05:42:24;;;;;;;1999.90;999.90;;;;;;;14.72;100.00;95369.50;5063819;28;20201;-49
2023/10/03 05:44:51;;;;;;;1999.90;999.90;;;;;;;15.29;100.00;95405.34;5063768;28;20170;-54
2023/10/03 05:47:16;;;;;;;1999.90;999.90;;;;;;;16.12;100.00;95445.56;5063791;28;20237;-54
2023/10/03 05:49:43;;;;;;;1999.90;999.90;;;;;;;16.78;100.00;95486.16;5064245;28;20263;-53
2023/10/03 05:52:08;;;;;;;1999.90;999.90;;;;;;;17.10;100.00;95502.50;5063710;28;20166;-53
2023/10/03 05:54:34;;;;;;;1999.90;999.90;;;;;;;17.69;100.00;95513.56;5063575;28;20204;-53
2023/10/03 05:56:59;;;;;;;1999.90;999.90;;;;;;;18.54;100.00;95517.69;5063553;28;20189;-55
2023/10/03 05:59:27;;;;;;;1999.90;999.90;;;;;;;18.96;100.00;95524.38;5063618;28;20219;-55
2023/10/03 06:01:52;;;;;;;1999.90;999.90;;;;;;;19.55;100.00;95526.78;5063541;28;20241;-54
2023/10/03 06:04:18;;;;;;;1999.90;999.90;;;;;;;20.06;100.00;95538.91;5063568;28;20166;-52
2023/10/03 06:06:46;;;;;;;1999.90;999.90;;;;;;;20.43;100.00;95534.94;5063343;28;20227;-54
2023/10/03 06:09:11;;;;;;;1999.90;999.90;;;;;;;21.00;100.00;95531.16;5064254;28;20170;-57
2023/10/03 06:11:38;;;;;;;1999.90;999.90;;;;;;;21.22;100.00;95534.50;5063636;28;20196;-55
2023/10/03 06:14:03;;;;;;;1999.90;999.90;;;;;;;21.28;100.00;95542.97;5063507;28;20223;-54
2023/10/03 06:16:29;;;;;;;1999.90;999.90;;;;;;;21.54;100.00;95533.75;5063552;28;20194;-53
2023/10/03 06:18:56;;;;;;;1999.90;999.90;;;;;;;22.10;100.00;95530.94;5063424;28;20174;-55
2023/10/03 06:21:22;;;;;;;1999.90;999.90;;;;;;;22.51;100.00;95532.06;5064197;28;20170;-56
2023/10/03 06:23:47;;;;;;;1999.90;999.90;;;;;;;23.33;100.00;95535.56;5064139;28;20166;-53
2023/10/03 06:26:20;;;;;;;1999.90;999.90;;;;;;;23.79;100.00;95535.75;5063426;28;20205;-54
2023/10/03 06:28:46;;;;;;;1999.90;999.90;;;;;;;24.15;100.00;95540.84;5065126;28;20166;-55
2023/10/03 06:31:11;;;;;;;1999.90;999.90;;;;;;;24.62;100.00;95543.25;5067827;28;20174;-54
2023/10/03 06:33:39;;;;;;;1999.90;999.90;;;;;;;24.94;100.00;95542.03;5067741;28;20181;-55
2023/10/03 06:36:06;;;;;;;1999.90;999.90;;;;;;;25.42;100.00;95531.81;5067136;28;20181;-55
2023/10/03 06:38:32;;;;;;;1999.90;999.90;;;;;;;25.79;100.00;95538.22;5067890;28;20245;-58
2023/10/03 06:40:57;;;;;;;1999.90;999.90;;;;;;;26.13;100.00;95539.97;5067376;28;20260;-57
2023/10/03 06:43:22;;;;;;;1999.90;999.90;;;;;;;26.26;100.00;95539.53;5066994;28;20170;-54
2023/10/03 06:45:48;;;;;;;1999.90;999.90;;;;;;;26.71;100.00;95544.84;5067639;28;20201;-56
2023/10/03 06:48:13;;;;;;;1999.90;999.90;;;;;;;27.45;95.64;95542.41;5067491;28;20170;-55
2023/10/03 06:50:42;;;;;;;1999.90;999.90;;;;;;;27.82;91.79;95540.88;5066980;28;20170;-52
2023/10/03 06:53:08;;;;;;;1999.90;999.90;;;;;;;28.14;85.41;95550.56;5067301;28;20174;-56
2023/10/03 06:55:35;;;;;;;1999.90;999.90;;;;;;;28.11;82.12;95543.16;5066845;28;20174;-54
2023/10/03 06:58:01;;;;;;;1999.90;999.90;;;;;;;27.83;83.77;95550.84;5066519;28;20193;-56
2023/10/03 07:00:28;;;;;;;1999.90;999.90;;;;;;;28.33;84.37;95555.63;5066686;28;20176;-57
2023/10/03 07:02:54;;;;;;;1999.90;999.90;;;;;;;28.44;78.61;95552.78;5067188;28;20169;-55
2023/10/03 07:05:19;;;;;;;1999.90;999.90;;;;;;;28.45;82.05;95557.91;5066737;28;20215;-56
2023/10/03 07:07:44;;;;;;;1999.90;999.90;;;;;;;28.72;76.30;95554.19;5066754;28;20208;-58
2023/10/03 07:10:10;;;;;;;1999.90;999.90;;;;;;;29.41;70.77;95552.03;5066677;28;20242;-57
2023/10/03 07:12:37;;;;;;;1999.90;999.90;;;;;;;29.05;70.81;95553.28;5066544;28;20166;-57
2023/10/03 07:15:11;;;;;;;1999.90;999.90;;;;;;;30.40;65.40;95551.16;5066983;28;20178;-58
2023/10/03 07:17:37;;;;;;;1999.90;999.90;;;;;;;31.39;60.87;95552.69;5067029;28;20161;-57
2023/10/03 07:20:05;;;;;;;1999.90;999.90;;;;;;;31.41;57.28;95561.41;5066566;28;20216;-56
2023/10/03 07:22:31;;;;;;;1999.90;999.90;;;;;;;32.27;53.92;95559.75;5066340;28;20170;-57
2023/10/03 07:24:57;;;;;;;1999.90;999.90;;;;;;;32.05;53.82;95559.38;5067125;28;20170;-58
2023/10/03 07:27:22;;;;;;;1999.90;999.90;;;;;;;32.37;51.90;95558.00;5066404;28;20205;-57
2023/10/03 07:29:47;;;;;;;1999.90;999.90;;;;;;;32.68;50.95;95559.22;5066724;28;20249;-57
2023/10/03 07:32:14;;;;;;;1999.90;999.90;;;;;;;32.49;50.06;95567.84;5066667;28;20162;-58
2023/10/03 07:34:43;;;;;;;1999.90;999.90;;;;;;;33.07;49.47;95568.44;5066067;28;20170;-57
2023/10/03 07:37:09;;;;;;;1999.90;999.90;;;;;;;33.18;48.84;95568.19;5066175;28;20178;-57
2023/10/03 07:39:34;;;;;;;1999.90;999.90;;;;;;;33.71;48.10;95569.56;5066486;28;20181;-58
2023/10/03 07:42:01;;;;;;;1999.90;999.90;;;;;;;33.77;47.78;95566.59;5066205;28;20166;-58
2023/10/03 07:44:26;;;;;;;1999.90;999.90;;;;;;;32.99;47.26;95573.25;5065913;28;20166;-57
2023/10/03 07:46:52;;;;;;;1999.90;999.90;;;;;;;32.95;49.28;95567.16;5066139;28;20236;-58
2023/10/03 07:49:17;;;;;;;1999.90;999.90;;;;;;;33.36;48.71;95567.31;5066102;28;20170;-58
2023/10/03 07:51:43;;;;;;;1999.90;999.90;;;;;;;33.73;47.77;95574.69;5065460;28;20236;-57
2023/10/03 07:54:08;;;;;;;1999.90;999.90;;;;;;;33.93;46.04;95571.13;5066009;28;20181;-56
2023/10/03 07:56:33;;;;;;;1999.90;999.90;;;;;;;34.91;44.62;95572.66;5065463;28;20169;-57
2023/10/03 07:59:04;;;;;;;1999.90;999.90;;;;;;;35.39;42.45;95576.69;5065468;28;20197;-56
2023/10/03 08:01:30;;;;;;;1999.90;999.90;;;;;;;35.04;42.87;95568.94;5066157;28;20170;-58
2023/10/03 08:03:57;;;;;;;1999.90;999.90;;;;;;;35.06;43.16;95569.88;5065556;28;20233;-58
2023/10/03 08:06:25;;;;;;;1999.90;999.90;;;;;;;34.92;43.27;95570.59;5066069;28;20218;-58
2023/10/03 08:09:00;;;;;;;1999.90;999.90;;;;;;;34.87;43.87;95580.00;5065412;28;20177;-58
2023/10/03 08:11:30;;;;;;;1999.90;999.90;;;;;;;34.72;44.58;95579.91;5066210;28;20241;-58
2023/10/03 08:13:56;;;;;;;1999.90;999.90;;;;;;;34.91;44.22;95580.41;5065318;28;20176;-58
2023/10/03 08:16:22;;;;;;;1999.90;999.90;;;;;;;35.75;41.89;95583.03;5065163;28;20244;-58
2023/10/03 08:18:57;;;;;;;1999.90;999.90;;;;;;;35.77;41.43;95586.09;5065300;28;20170;-59
2023/10/03 08:21:27;;;;;;;1999.90;999.90;;;;;;;36.63;41.15;95580.06;5065782;28;20174;-58
2023/10/03 08:23:54;;;;;;;1999.90;999.90;;;;;;;37.50;38.43;95585.94;5065160;28;20172;-58
2023/10/03 08:26:21;;;;;;;1999.90;999.90;;;;;;;37.95;37.21;95592.19;5065601;28;20170;-58
2023/10/03 08:28:59;;;;;;;1999.90;999.90;;;;;;;37.39;37.48;95592.81;5065836;28;20249;-59
2023/10/03 08:31:28;;;;;;;1999.90;999.90;;;;;;;38.18;35.71;95587.09;5065525;28;20174;-59
2023/10/03 08:33:56;;;;;;;1999.90;999.90;;;;;;;37.29;36.28;95588.31;5064968;28;20174;-59
2023/10/03 08:36:23;;;;;;;1999.90;999.90;;;;;;;36.31;39.05;95591.31;5065409;28;20201;-58
2023/10/03 08:38:49;;;;;;;1999.90;999.90;;;;;;;35.88;39.47;95585.75;5065281;28;20198;-58
2023/10/03 08:41:30;;;;;;;1999.90;999.90;;;;;;;35.77;40.84;95588.94;5064680;28;20201;-59
2023/10/03 08:43:57;;;;;;;1999.90;999.90;;;;;;;35.85;39.54;95586.88;5065310;28;20241;-58
2023/10/03 08:46:28;;;;;;;1999.90;999.90;;;;;;;36.06;39.13;95590.31;5064942;28;20245;-58
2023/10/03 08:49:00;;;;;;;1999.90;999.90;;;;;;;36.13;39.14;95590.31;5065004;28;20200;-59
2023/10/03 08:51:32;;;;;;;1999.90;999.90;;;;;;;36.33;39.53;95591.50;5064628;28;20169;-57
2023/10/03 08:54:08;;;;;;;1999.90;999.90;;;;;;;35.05;41.60;95596.00;5065152;28;20188;-57
2023/10/03 08:56:35;;;;;;;1999.90;999.90;;;;;;;35.20;41.42;95594.00;5064377;28;20189;-58
2023/10/03 08:59:07;;;;;;;1999.90;999.90;;;;;;;35.01;40.58;95592.78;5064424;28;20197;-57
2023/10/03 09:01:37;;;;;;;1999.90;999.90;;;;;;;35.59;41.53;95587.16;5064966;28;20192;-58
2023/10/03 09:04:15;;;;;;;1999.90;999.90;;;;;;;36.35;38.86;95588.84;5064413;28;20174;-58
2023/10/03 09:06:41;;;;;;;1999.90;999.90;;;;;;;36.14;38.89;95585.38;5064522;28;20217;-58
2023/10/03 09:09:09;;;;;;;1999.90;999.90;;;;;;;35.60;39.23;95580.91;5064455;28;20188;-58
2023/10/03 09:11:38;;;;;;;1999.90;999.90;;;;;;;35.06;40.93;95595.44;5064346;28;20241;-58
2023/10/03 09:14:08;;;;;;;1999.90;999.90;;;;;;;35.07;41.03;95588.44;5064708;28;20172;-58
2023/10/03 09:16:40;;;;;;;1999.90;999.90;;;;;;;35.28;40.94;95579.84;5064127;28;20201;-57
2023/10/03 09:19:09;;;;;;;1999.90;999.90;;;;;;;35.55;39.92;95583.94;5064634;28;20161;-57
2023/10/03 09:21:35;;;;;;;1999.90;999.90;;;;;;;35.99;40.18;95576.84;5064804;28;20170;-58
2023/10/03 09:24:17;;;;;;;1999.90;999.90;;;;;;;35.52;40.54;95573.69;5064050;28;20174;-58
2023/10/03 09:26:47;;;;;;;1999.90;999.90;;;;;;;35.22;41.26;95582.09;5064671;28;20161;-57
2023/10/03 09:29:18;;;;;;;1999.90;999.90;;;;;;;36.06;39.68;95568.31;5063955;28;20177;-58
2023/10/03 09:31:48;;;;;;;1999.90;999.90;;;;;;;36.04;39.94;95576.66;5064590;28;20173;-58
2023/10/03 09:34:15;;;;;;;1999.90;999.90;;;;;;;36.29;38.46;95574.81;5063867;28;20170;-57
2023/10/03 09:36:41;;;;;;;1999.90;999.90;;;;;;;36.54;37.83;95561.50;5063922;28;20212;-57
2023/10/03 09:39:21;;;;;;;1999.90;999.90;;;;;;;36.21;38.94;95564.72;5063866;28;20174;-58
2023/10/03 09:41:56;;;;;;;1999.90;999.90;;;;;;;35.87;40.08;95562.22;5064364;28;20166;-57
2023/10/03 09:44:29;;;;;;;1999.90;999.90;;;;;;;35.96;39.83;95558.06;5064481;28;20165;-57
2023/10/03 09:47:06;;;;;;;1999.90;999.90;;;;;;;36.38;37.91;95564.94;5064263;28;20173;-57
2023/10/03 09:49:38;;;;;;;1999.90;999.90;;;;;;;35.86;40.06;95554.25;5064308;28;20162;-56
2023/10/03 09:52:23;;;;;;;1999.90;999.90;;;;;;;36.00;37.68;95564.13;5064252;28;20174;-58
2023/10/03 09:54:59;;;;;;;1999.90;999.90;;;;;;;35.96;37.67;95560.91;5064205;28;20204;-58
2023/10/03 09:57:28;;;;;;;1999.90;999.90;;;;;;;35.51;38.81;95555.13;5064020;28;20239;-58
2023/10/03 09:59:55;;;;;;;1999.90;999.90;;;;;;;35.09;38.83;95548.88;5063741;28;20198;-58
2023/10/03 10:05:20;;;;;;;1999.90;999.90;;;;;;;34.13;39.95;95558.25;5059617;28;20218;-57
2023/10/03 10:08:12;;;;;;;1999.90;999.90;;;;;;;34.65;39.41;95552.97;5067693;28;20216;-58
2023/10/03 10:10:38;;;;;;;1999.90;999.90;;;;;;;35.22;38.62;95553.66;5068535;28;20228;-57
2023/10/03 10:13:13;;;;;;;1999.90;999.90;;;;;;;35.63;37.16;95553.44;5067644;28;20174;-57
2023/10/03 10:16:00;;;;;;;1999.90;999.90;;;;;;;35.67;37.31;95553.81;5068323;28;20170;-58
2023/10/03 10:18:43;;;;;;;1999.90;999.90;;;;;;;34.52;38.15;95555.19;5067174;28;20207;-57
2023/10/03 10:21:32;;;;;;;1999.90;999.90;;;;;;;34.89;38.18;95554.66;5067186;28;20201;-57
2023/10/03 10:24:11;;;;;;;1999.90;999.90;;;;;;;34.71;38.76;95558.50;5067669;28;20173;-57
2023/10/03 10:26:38;;;;;;;1999.90;999.90;;;;;;;34.80;38.27;95546.63;5067442;28;20200;-57
2023/10/03 10:29:14;;;;;;;1999.90;999.90;;;;;;;34.99;38.17;95549.97;5067814;28;20166;-57
2023/10/03 10:31:44;;;;;;;1999.90;999.90;;;;;;;35.11;37.53;95554.00;5066944;28;20178;-58
2023/10/03 10:34:21;;;;;;;1999.90;999.90;;;;;;;35.02;37.39;95543.16;5067174;28;20182;-56
2023/10/03 10:37:01;;;;;;;1999.90;999.90;;;;;;;34.45;39.45;95538.84;5067016;28;20194;-59
2023/10/03 10:39:56;;;;;;;1999.90;999.90;;;;;;;34.16;39.47;95540.91;5067131;28;20165;-56
2023/10/03 10:42:25;;;;;;;1999.90;999.90;;;;;;;34.75;38.45;95539.03;5056802;28;20182;-57
2023/10/03 10:45:15;;;;;;;1999.90;999.90;;;;;;;34.71;38.87;95539.41;5067085;28;20166;-56
2023/10/03 10:47:50;;;;;;;1999.90;999.90;;;;;;;34.22;39.48;95532.25;5067540;28;20166;-57
2023/10/03 10:50:21;;;;;;;1999.90;999.90;;;;;;;34.21;39.44;95536.38;5067457;28;20169;-57
2023/10/03 10:53:02;;;;;;;1999.90;999.90;;;;;;;33.60;41.07;95529.41;5067427;28;20182;-58
2023/10/03 10:55:28;;;;;;;1999.90;999.90;;;;;;;33.30;41.25;95534.72;5067444;28;20166;-57
2023/10/03 10:58:12;;;;;;;1999.90;999.90;;;;;;;33.71;39.87;95529.88;5066545;28;20233;-58
2023/10/03 11:00:39;;;;;;;1999.90;999.90;;;;;;;33.88;40.25;95531.56;5067270;28;20227;-57
2023/10/03 11:03:06;;;;;;;1999.90;999.90;;;;;;;33.74;40.78;95528.78;5067156;28;20174;-58